Time;durP1;ratioP1;P1;durP2;ratioP2;P2;SDS_P1;SDS_P2;PMS_P1;PMS_P2;Temp;Humidity;BMP_temperature;BMP_pressure;BME280_temperature;BME280_humidity;BME280_pressure;Samples;Min_cycle;Max_cycle;Signal;HPM_P1;HPM_P2
2024/01/20 00:00:11;;;;;;;20.00;10.07;;;;;;;-141.97;100.00;46464.03;5032696;28;20173;-84
2024/01/20 00:02:36;;;;;;;22.87;11.07;;;;;;;-141.97;100.00;46304.56;5050471;28;20157;-84
2024/01/20 00:05:02;;;;;;;20.73;10.83;;;;;;;-141.97;100.00;46108.59;5050466;28;20170;-84
2024/01/20 00:07:27;;;;;;;17.77;8.67;;;;;;;-141.97;100.00;46120.13;5032753;28;20181;-86
2024/01/20 00:09:52;;;;;;;14.27;8.37;;;;;;;-141.97;100.00;46362.22;5050605;28;20174;-85
2024/01/20 00:12:18;;;;;;;16.37;9.27;;;;;;;-141.97;100.00;46120.13;5032740;28;20181;-85
2024/01/20 00:14:43;;;;;;;16.77;8.77;;;;;;;-141.97;100.00;46473.66;5050632;28;20221;-84
2024/01/20 00:17:09;;;;;;;15.43;8.57;;;;;;;-141.97;100.00;46419.84;5051809;28;20556;-84
2024/01/20 00:19:34;;;;;;;15.70;8.83;;;;;;;-141.97;100.00;46016.38;5051951;28;20594;-85
2024/01/20 00:22:00;;;;;;;15.83;9.30;;;;;;;-141.97;100.00;46127.81;5064328;28;20199;-85
2024/01/20 00:24:25;;;;;;;16.47;8.03;;;;;;;-141.97;100.00;46127.81;5072163;28;20257;-84
2024/01/20 00:26:50;;;;;;;14.53;8.17;;;;;;;-141.97;100.00;46125.88;5073410;28;20183;-86
2024/01/20 00:29:16;;;;;;;13.73;6.57;;;;;;;-141.97;100.00;46458.28;5073909;28;20213;-83
2024/01/20 00:31:41;;;;;;;15.80;8.63;;;;;;;-141.97;100.00;46001.00;5055071;28;20189;-85
2024/01/20 00:34:06;;;;;;;12.67;6.60;;;;;;;-141.97;100.00;46471.72;5053779;28;20280;-83
2024/01/20 00:36:32;;;;;;;14.87;8.77;;;;;;;-141.97;100.00;46077.84;5064136;28;20172;-83
2024/01/20 00:38:57;;;;;;;14.60;7.60;;;;;;;-141.97;100.00;45977.94;5031846;28;20221;-83
2024/01/20 00:41:23;;;;;;;15.50;8.83;;;;;;;-141.97;100.00;46385.25;5031990;28;20166;-84
2024/01/20 00:43:48;;;;;;;13.20;7.47;;;;;;;-141.97;100.00;46097.06;5049765;28;20165;-85
2024/01/20 00:46:13;;;;;;;11.70;6.63;;;;;;;-141.97;100.00;46127.81;5031997;28;20184;-84
2024/01/20 00:48:39;;;;;;;13.70;6.70;;;;;;;-141.97;100.00;45993.31;5031766;28;20235;-85
2024/01/20 00:51:04;;;;;;;11.90;6.80;;;;;;;-141.97;100.00;46373.72;5032366;28;20187;-85
2024/01/20 00:53:30;;;;;;;16.90;7.07;;;;;;;-141.97;100.00;46556.28;5031788;28;20209;-85
2024/01/20 00:55:55;;;;;;;16.40;7.90;;;;;;;-141.97;100.00;46437.13;5031638;28;20173;-85
2024/01/20 00:58:20;;;;;;;13.93;7.73;;;;;;;-141.97;100.00;45949.13;5032089;28;20552;-84
2024/01/20 01:00:46;;;;;;;15.87;7.77;;;;;;;-141.97;100.00;46462.13;5031878;28;20268;-85
2024/01/20 01:03:11;;;;;;;15.07;7.80;;;;;;;-141.97;100.00;46331.47;5031815;28;20177;-85
2024/01/20 01:05:37;;;;;;;14.10;7.83;;;;;;;-141.97;100.00;45985.63;5031977;28;20184;-85
2024/01/20 01:08:02;;;;;;;15.17;8.77;;;;;;;-141.97;100.00;46077.84;5032108;28;20157;-85
2024/01/20 01:10:28;;;;;;;17.03;9.10;;;;;;;-141.97;100.00;46531.28;5032644;28;20173;-84
2024/01/20 01:12:53;;;;;;;16.77;8.57;;;;;;;-141.97;100.00;46143.19;5031428;28;20277;-84
2024/01/20 01:15:18;;;;;;;13.90;8.67;;;;;;;-141.97;100.00;46465.97;5031651;28;20200;-85
2024/01/20 01:17:44;;;;;;;13.60;8.27;;;;;;;-141.97;100.00;46358.38;5031421;28;20169;-85
2024/01/20 01:20:10;;;;;;;15.47;8.37;;;;;;;-141.97;100.00;46467.88;5049547;28;20174;-85
2024/01/20 01:22:35;;;;;;;16.47;9.23;;;;;;;-141.97;100.00;45989.47;5031712;28;20667;-84
2024/01/20 01:25:01;;;;;;;12.97;7.87;;;;;;;-141.97;100.00;45966.44;5031406;28;20178;-84
2024/01/20 01:27:26;;;;;;;14.00;8.07;;;;;;;-141.97;100.00;46450.59;5049433;28;20173;-84
2024/01/20 01:29:52;;;;;;;16.50;8.17;;;;;;;-141.97;100.00;45981.78;5049459;28;20681;-84
2024/01/20 01:32:19;;;;;;;13.57;6.73;;;;;;;-141.97;100.00;46346.84;5049293;28;20169;-84
2024/01/20 01:34:44;;;;;;;11.00;5.70;;;;;;;-141.97;100.00;46467.88;5032305;28;20330;-84
2024/01/20 01:37:09;;;;;;;13.63;7.03;;;;;;;-141.97;100.00;45947.22;5031609;28;20169;-85
2024/01/20 01:39:35;;;;;;;13.47;6.70;;;;;;;-141.97;100.00;46058.63;5031275;28;20169;-84
2024/01/20 01:42:00;;;;;;;13.80;6.80;;;;;;;-141.97;100.00;46381.41;5031287;28;20213;-84
2024/01/20 01:44:26;;;;;;;10.53;5.30;;;;;;;-141.97;100.00;46091.31;5031429;28;20211;-84
2024/01/20 01:46:51;;;;;;;13.37;6.23;;;;;;;-141.97;100.00;46458.28;5047818;28;20621;-85
2024/01/20 01:49:17;;;;;;;11.17;5.83;;;;;;;-141.97;100.00;46329.53;5049586;28;20176;-84
2024/01/20 01:51:43;;;;;;;7.50;4.47;;;;;;;-141.97;100.00;46058.63;5049549;28;20162;-85
2024/01/20 01:54:08;;;;;;;8.57;4.73;;;;;;;-141.97;100.00;46127.81;5049175;28;20197;-85
2024/01/20 01:56:34;;;;;;;12.47;5.90;;;;;;;-141.97;100.00;46083.63;5052578;28;20161;-85
2024/01/20 01:59:00;;;;;;;11.63;5.47;;;;;;;-141.97;100.00;46125.88;5059784;28;20165;-85
2024/01/20 02:01:26;;;;;;;10.60;5.13;;;;;;;-141.97;100.00;46412.16;5078206;28;20162;-84
2024/01/20 02:03:51;;;;;;;11.07;6.00;;;;;;;-141.97;100.00;46548.59;5057171;28;20272;-84
2024/01/20 02:06:17;;;;;;;10.93;5.43;;;;;;;-141.97;100.00;46477.50;5053155;28;20600;-84
2024/01/20 02:08:43;;;;;;;12.83;6.30;;;;;;;-141.97;100.00;46152.78;5052594;28;20202;-84
2024/01/20 02:11:09;;;;;;;10.53;5.43;;;;;;;-141.97;100.00;46490.94;5034672;28;20193;-84
2024/01/20 02:13:35;;;;;;;10.60;5.37;;;;;;;-141.97;100.00;46147.03;5052996;28;20272;-83
2024/01/20 02:16:02;;;;;;;9.40;5.00;;;;;;;-141.97;100.00;46139.34;5053126;28;20173;-83
2024/01/20 02:18:28;;;;;;;10.90;5.90;;;;;;;-141.97;100.00;46531.28;5053211;28;20173;-84
2024/01/20 02:20:53;;;;;;;7.90;4.30;;;;;;;-141.97;100.00;46483.25;5035215;28;20173;-84
2024/01/20 02:23:19;;;;;;;8.23;4.60;;;;;;;-141.97;100.00;46093.22;5052403;28;20553;-84
2024/01/20 02:25:45;;;;;;;10.37;5.30;;;;;;;-141.97;100.00;46531.28;5052444;28;20512;-84
2024/01/20 02:28:11;;;;;;;7.60;3.50;;;;;;;-141.97;100.00;46100.91;5034560;28;20215;-84
2024/01/20 02:30:36;;;;;;;12.47;5.70;;;;;;;-141.97;100.00;46442.91;5050625;28;20557;-84
2024/01/20 02:33:02;;;;;;;8.57;4.63;;;;;;;-141.97;100.00;46464.03;5052349;28;20193;-85
2024/01/20 02:35:27;;;;;;;8.33;3.77;;;;;;;-141.97;100.00;46494.78;5034224;28;20178;-84
2024/01/20 02:37:53;;;;;;;5.93;3.67;;;;;;;-141.97;100.00;46150.84;5034780;28;20177;-85
2024/01/20 02:40:18;;;;;;;6.37;3.43;;;;;;;-141.97;100.00;45985.63;5034563;28;20178;-83
2024/01/20 02:42:43;;;;;;;8.83;4.20;;;;;;;-141.97;100.00;46008.69;5052363;28;20162;-84
2024/01/20 02:45:09;;;;;;;6.53;3.80;;;;;;;-141.97;100.00;46008.69;5052318;28;20179;-85
2024/01/20 02:47:34;;;;;;;7.57;3.83;;;;;;;-141.97;100.00;45951.06;5034404;28;20217;-85
2024/01/20 02:50:00;;;;;;;9.50;5.07;;;;;;;-141.97;100.00;46235.41;5034209;28;20572;-84
2024/01/20 02:52:25;;;;;;;6.60;3.83;;;;;;;-141.97;100.00;46437.13;5034445;28;20208;-83
2024/01/20 02:54:51;;;;;;;7.07;3.90;;;;;;;-141.97;100.00;45972.19;5052252;28;20598;-85
2024/01/20 02:57:16;;;;;;;6.93;4.43;;;;;;;-141.97;100.00;46154.69;5052713;28;20540;-85
2024/01/20 02:59:42;;;;;;;8.43;4.80;;;;;;;-141.97;100.00;46506.31;5050696;28;20185;-85
2024/01/20 03:02:07;;;;;;;7.20;4.13;;;;;;;-141.97;100.00;46538.97;5052244;28;20581;-86
2024/01/20 03:04:33;;;;;;;5.00;3.20;;;;;;;-141.97;100.00;46636.97;5052043;28;20264;-85
2024/01/20 03:06:58;;;;;;;5.57;3.90;;;;;;;-141.97;100.00;46183.53;5052167;28;20191;-85
2024/01/20 03:09:23;;;;;;;6.90;4.03;;;;;;;-141.97;100.00;45951.06;5051793;28;20594;-84
2024/01/20 03:11:49;;;;;;;6.70;3.33;;;;;;;-141.97;100.00;46462.13;5052199;28;20628;-84
2024/01/20 03:14:14;;;;;;;5.57;3.17;;;;;;;-141.97;100.00;46483.25;5052164;28;20189;-85
2024/01/20 03:16:40;;;;;;;5.73;3.93;;;;;;;-141.97;100.00;46039.44;5033605;28;20181;-85
2024/01/20 03:19:06;;;;;;;7.30;3.60;;;;;;;-141.97;100.00;45997.16;5051674;28;20166;-86
2024/01/20 03:21:31;;;;;;;4.37;2.70;;;;;;;-141.97;100.00;46264.22;5051904;28;20579;-85
2024/01/20 03:23:57;;;;;;;6.93;4.07;;;;;;;-141.97;100.00;46173.91;5033369;28;20412;-85
2024/01/20 03:26:22;;;;;;;5.93;3.33;;;;;;;-141.97;100.00;45997.16;5050063;28;20177;-85
2024/01/20 03:28:48;;;;;;;5.47;3.10;;;;;;;-141.97;100.00;46152.78;5051473;28;20235;-85
2024/01/20 03:31:14;;;;;;;7.17;3.90;;;;;;;-141.97;100.00;46581.25;5051458;28;20233;-85
2024/01/20 03:33:39;;;;;;;5.53;3.40;;;;;;;-141.97;100.00;46473.66;5033458;28;20199;-85
2024/01/20 03:36:05;;;;;;;4.67;2.63;;;;;;;-141.97;100.00;46156.63;5033515;28;20191;-85
2024/01/20 03:38:30;;;;;;;5.40;3.67;;;;;;;-141.97;100.00;46004.84;5051149;28;20180;-85
2024/01/20 03:40:56;;;;;;;5.73;3.63;;;;;;;-141.97;100.00;46602.38;5051510;28;20157;-84
2024/01/20 03:43:21;;;;;;;5.43;3.40;;;;;;;-141.97;100.00;46162.38;5051163;28;20169;-84
2024/01/20 03:45:47;;;;;;;7.90;3.87;;;;;;;-141.97;100.00;46056.72;5051070;28;20234;-85
2024/01/20 03:48:12;;;;;;;6.77;3.87;;;;;;;-141.97;100.00;45989.47;5051102;28;20645;-85
2024/01/20 03:50:38;;;;;;;5.70;3.87;;;;;;;-141.97;100.00;46181.59;5051886;28;20166;-84
2024/01/20 03:53:04;;;;;;;6.43;4.17;;;;;;;-141.97;100.00;45989.47;5050742;28;20189;-84
2024/01/20 03:55:29;;;;;;;6.23;4.00;;;;;;;-141.97;100.00;46158.53;5033213;28;20412;-85
2024/01/20 03:57:55;;;;;;;7.97;4.67;;;;;;;-141.97;100.00;46077.84;5032816;28;20169;-84
2024/01/20 04:00:20;;;;;;;7.87;4.13;;;;;;;-141.97;100.00;46460.19;5051533;28;20207;-85
2024/01/20 04:02:46;;;;;;;5.93;3.33;;;;;;;-141.97;100.00;46569.72;5050628;28;20239;-85
2024/01/20 04:05:11;;;;;;;7.43;4.17;;;;;;;-141.97;100.00;46385.25;5050872;28;20161;-84
2024/01/20 04:07:37;;;;;;;7.33;3.40;;;;;;;-141.97;100.00;46170.06;5032687;28;20221;-83
2024/01/20 04:10:03;;;;;;;5.60;3.63;;;;;;;-141.97;100.00;46108.59;5032567;28;20707;-83
2024/01/20 04:12:28;;;;;;;6.53;3.30;;;;;;;-141.97;100.00;46127.81;5051840;28;20512;-84
2024/01/20 04:14:55;;;;;;;6.10;3.77;;;;;;;-141.97;100.00;45904.94;5050527;28;20317;-83
2024/01/20 04:17:21;;;;;;;6.57;3.53;;;;;;;-141.97;100.00;46162.38;5032192;28;20165;-83
2024/01/20 04:19:46;;;;;;;4.47;2.93;;;;;;;-141.97;100.00;46125.88;5031951;28;20534;-84
2024/01/20 04:22:12;;;;;;;5.47;3.23;;;;;;;-141.97;100.00;46070.16;5050841;28;20180;-84
2024/01/20 04:24:37;;;;;;;5.63;3.30;;;;;;;-141.97;100.00;46006.78;5032307;28;20620;-85
2024/01/20 04:27:03;;;;;;;5.83;3.07;;;;;;;-141.97;100.00;46033.66;5053037;28;20166;-85
2024/01/20 04:29:28;;;;;;;6.33;3.17;;;;;;;-141.97;100.00;46339.16;5063238;28;20161;-84
2024/01/20 04:31:54;;;;;;;4.90;3.20;;;;;;;-141.97;100.00;46112.44;5069793;28;20256;-83
2024/01/20 04:34:19;;;;;;;5.67;3.37;;;;;;;-141.97;100.00;46148.94;5032579;28;20212;-84
2024/01/20 04:36:44;;;;;;;8.03;3.53;;;;;;;-141.97;100.00;46008.69;5050313;28;20253;-85
2024/01/20 04:39:10;;;;;;;8.17;3.57;;;;;;;-141.97;100.00;46041.34;5050180;28;20598;-84
2024/01/20 04:41:35;;;;;;;7.07;3.33;;;;;;;-141.97;100.00;46581.25;5032064;28;20173;-84
2024/01/20 04:44:01;;;;;;;5.13;3.17;;;;;;;-141.97;100.00;46066.31;5050135;28;20158;-84
2024/01/20 04:46:26;;;;;;;5.73;3.30;;;;;;;-141.97;100.00;46442.91;5065462;28;20176;-84
2024/01/20 04:48:51;;;;;;;6.33;3.70;;;;;;;-141.97;100.00;46567.81;5051981;28;20263;-85
2024/01/20 04:51:17;;;;;;;7.03;4.17;;;;;;;-141.97;100.00;46285.34;5051944;28;20244;-84
2024/01/20 04:53:42;;;;;;;7.77;4.03;;;;;;;-141.97;100.00;46093.22;5069547;28;20196;-84
2024/01/20 04:56:08;;;;;;;5.97;3.37;;;;;;;-141.97;100.00;46166.22;5070193;28;20157;-85
2024/01/20 04:58:33;;;;;;;6.73;3.83;;;;;;;-141.97;100.00;45997.16;5052144;28;20169;-85
2024/01/20 05:00:59;;;;;;;5.20;3.60;;;;;;;-141.97;100.00;45858.84;5070397;28;20172;-84
2024/01/20 05:03:25;;;;;;;4.83;3.23;;;;;;;-141.97;100.00;46139.34;5037833;28;20179;-85
2024/01/20 05:05:50;;;;;;;3.60;2.40;;;;;;;-141.97;100.00;46193.13;5053557;28;20225;-85
2024/01/20 05:08:15;;;;;;;3.33;2.70;;;;;;;-141.97;100.00;46012.53;5075453;28;20195;-85
2024/01/20 05:10:41;;;;;;;4.00;2.30;;;;;;;-141.97;100.00;46081.69;5059788;28;20231;-85
2024/01/20 05:13:06;;;;;;;4.10;2.60;;;;;;;-141.97;100.00;46221.94;5062777;28;20692;-85
2024/01/20 05:15:32;;;;;;;3.87;2.60;;;;;;;-141.97;100.00;45993.31;5058649;28;20172;-84
2024/01/20 05:17:57;;;;;;;3.93;2.23;;;;;;;-141.97;100.00;46510.16;5056163;28;20517;-84
2024/01/20 05:20:23;;;;;;;5.83;2.87;;;;;;;-141.97;100.00;46095.16;5078190;28;20192;-84
2024/01/20 05:22:49;;;;;;;5.97;3.30;;;;;;;-141.97;100.00;46154.69;5077008;28;20200;-84
2024/01/20 05:25:14;;;;;;;4.43;3.10;;;;;;;-141.97;100.00;45974.09;5052921;28;20664;-83
2024/01/20 05:27:40;;;;;;;4.53;3.07;;;;;;;-141.97;100.00;46114.34;5071328;28;20255;-85
2024/01/20 05:30:07;;;;;;;4.47;2.40;;;;;;;-141.97;100.00;46479.41;5054936;28;20195;-84
2024/01/20 05:32:32;;;;;;;3.23;2.47;;;;;;;-141.97;100.00;46533.22;5055868;28;20198;-85
2024/01/20 05:34:57;;;;;;;3.13;2.10;;;;;;;-141.97;100.00;45985.63;5074965;28;21016;-85
2024/01/20 05:37:23;;;;;;;4.83;2.70;;;;;;;-141.97;100.00;46540.91;5056294;28;20169;-85
2024/01/20 05:39:48;;;;;;;4.93;2.90;;;;;;;-141.97;100.00;46193.13;5053955;28;20166;-83
2024/01/20 05:42:14;;;;;;;5.07;3.13;;;;;;;-141.97;100.00;46031.75;5035674;28;20165;-84
2024/01/20 05:44:40;;;;;;;4.10;2.70;;;;;;;-141.97;100.00;46531.28;5035494;28;20169;-84
2024/01/20 05:47:05;;;;;;;5.63;3.60;;;;;;;-141.97;100.00;46189.28;5035273;28;20242;-84
2024/01/20 05:49:31;;;;;;;4.87;3.30;;;;;;;-141.97;100.00;46133.56;5053878;28;20169;-83
2024/01/20 05:51:56;;;;;;;3.47;2.40;;;;;;;-141.97;100.00;46498.63;5053513;28;20617;-84
2024/01/20 05:54:21;;;;;;;5.70;3.60;;;;;;;-141.97;100.00;46035.59;5053394;28;20209;-84
2024/01/20 05:56:47;;;;;;;5.80;3.77;;;;;;;-141.97;100.00;46220.03;5053933;28;20172;-84
2024/01/20 05:59:12;;;;;;;6.10;3.70;;;;;;;-141.97;100.00;46212.34;5076990;28;20165;-85
2024/01/20 06:01:38;;;;;;;8.50;3.23;;;;;;;-141.97;100.00;46210.41;5078054;28;20177;-85
2024/01/20 06:04:04;;;;;;;7.83;5.27;;;;;;;-141.97;100.00;45985.63;5077339;28;20219;-83
2024/01/20 06:06:29;;;;;;;7.20;4.33;;;;;;;-141.97;100.00;46235.41;5053831;28;20161;-84
2024/01/20 06:08:55;;;;;;;5.23;3.50;;;;;;;-141.97;100.00;46198.91;5053380;28;20465;-84
2024/01/20 06:11:23;;;;;;;5.47;3.47;;;;;;;-141.97;100.00;46204.66;5053075;28;20614;-84
2024/01/20 06:13:48;;;;;;;4.23;2.67;;;;;;;-141.97;100.00;46129.72;5035039;28;20201;-84
2024/01/20 06:16:14;;;;;;;6.07;3.50;;;;;;;-141.97;100.00;46319.94;5035224;28;20826;-84
2024/01/20 06:18:39;;;;;;;4.83;3.23;;;;;;;-141.97;100.00;46540.91;5035242;28;20173;-84
2024/01/20 06:21:05;;;;;;;3.83;2.67;;;;;;;-141.97;100.00;46106.66;5035786;28;20768;-84
2024/01/20 06:23:30;;;;;;;5.10;3.80;;;;;;;-141.97;100.00;46106.66;5036359;28;20173;-84
2024/01/20 06:25:56;;;;;;;6.40;4.13;;;;;;;-141.97;100.00;46050.97;5035094;28;20213;-84
2024/01/20 06:28:21;;;;;;;6.80;3.93;;;;;;;-141.97;100.00;46435.22;5035327;28;20489;-85
2024/01/20 06:30:49;;;;;;;4.63;3.17;;;;;;;-141.97;100.00;46385.25;5036082;28;20626;-84
2024/01/20 06:33:15;;;;;;;4.93;3.07;;;;;;;-141.97;100.00;45977.94;5034887;28;20197;-84
2024/01/20 06:35:40;;;;;;;3.97;2.70;;;;;;;-141.97;100.00;46185.44;5056237;28;20778;-83
2024/01/20 06:38:06;;;;;;;3.87;2.33;;;;;;;-141.97;100.00;46085.53;5035613;28;20185;-83
2024/01/20 06:40:31;;;;;;;3.07;2.10;;;;;;;-141.97;100.00;46020.22;5053570;28;20181;-83
2024/01/20 06:42:57;;;;;;;5.00;3.73;;;;;;;-141.97;100.00;46158.53;5053627;28;20635;-84
2024/01/20 06:45:22;;;;;;;8.93;5.17;;;;;;;-141.97;100.00;46656.19;5035161;28;20170;-84
2024/01/20 06:47:48;;;;;;;6.70;4.00;;;;;;;-141.97;100.00;46391.03;5035985;28;20232;-84
2024/01/20 06:50:13;;;;;;;5.47;3.40;;;;;;;-141.97;100.00;46538.97;5035352;28;20180;-84
2024/01/20 06:52:39;;;;;;;7.17;3.57;;;;;;;-141.97;100.00;46235.41;5053124;28;20173;-83
2024/01/20 06:55:05;;;;;;;4.07;2.80;;;;;;;-141.97;100.00;46050.97;5034594;28;20567;-83
2024/01/20 06:57:30;;;;;;;4.97;3.47;;;;;;;-141.97;100.00;46001.00;5053975;28;21168;-83
2024/01/20 06:59:56;;;;;;;9.33;4.47;;;;;;;-141.97;100.00;45962.59;5071679;28;20154;-82
2024/01/20 07:02:21;;;;;;;7.57;3.87;;;;;;;-141.97;100.00;46245.00;5069629;28;20287;-83
2024/01/20 07:04:47;;;;;;;10.77;5.67;;;;;;;-141.97;100.00;46187.38;5053037;28;20248;-84
2024/01/20 07:07:12;;;;;;;14.47;7.77;;;;;;;-141.97;100.00;46277.66;5034992;28;20549;-85
2024/01/20 07:09:39;;;;;;;7.53;4.50;;;;;;;-141.97;100.00;46683.09;5052064;28;20183;-84
2024/01/20 07:12:06;;;;;;;4.13;3.13;;;;;;;-141.97;100.00;46125.88;5051493;28;20529;-83
2024/01/20 07:14:31;;;;;;;9.10;5.13;;;;;;;-141.97;100.00;46212.34;5033709;28;20980;-85
2024/01/20 07:16:57;;;;;;;7.37;4.67;;;;;;;-141.97;100.00;46125.88;5051841;28;20433;-83
2024/01/20 07:19:22;;;;;;;6.73;4.40;;;;;;;-141.97;100.00;45939.53;5051877;28;20169;-83
2024/01/20 07:21:47;;;;;;;6.33;3.30;;;;;;;-141.97;100.00;46177.75;5051870;28;20168;-85
2024/01/20 07:24:13;;;;;;;12.70;5.73;;;;;;;-141.97;100.00;46022.13;5052010;28;20616;-85
2024/01/20 07:26:38;;;;;;;11.77;6.20;;;;;;;-141.97;100.00;46196.97;5052173;28;20648;-84
2024/01/20 07:29:04;;;;;;;8.87;4.67;;;;;;;-141.97;100.00;46177.75;5050927;28;20173;-84
2024/01/20 07:31:29;;;;;;;13.53;7.77;;;;;;;-141.97;100.00;46177.75;5052448;28;20218;-85
2024/01/20 07:33:54;;;;;;;11.73;6.70;;;;;;;-141.97;100.00;46216.19;5036099;28;20288;-86
2024/01/20 07:36:20;;;;;;;11.07;5.30;;;;;;;-141.97;100.00;46269.97;5057269;28;20180;-84
2024/01/20 07:38:45;;;;;;;8.10;4.27;;;;;;;-141.97;100.00;46025.97;5054170;28;20169;-85
2024/01/20 07:41:11;;;;;;;9.47;5.50;;;;;;;-141.97;100.00;46646.59;5035418;28;20578;-85
2024/01/20 07:43:36;;;;;;;6.10;4.07;;;;;;;-141.97;100.00;46131.66;5053966;28;20332;-85
2024/01/20 07:46:02;;;;;;;4.23;2.77;;;;;;;-141.97;100.00;46079.78;5036302;28;20169;-86
2024/01/20 07:48:27;;;;;;;7.33;4.57;;;;;;;-141.97;100.00;46164.31;5057322;28;20770;-85
2024/01/20 07:50:53;;;;;;;8.43;5.23;;;;;;;-141.97;100.00;46592.78;5054379;28;20169;-85
2024/01/20 07:53:19;;;;;;;5.73;3.60;;;;;;;-141.97;100.00;46325.69;5035491;28;20158;-85
2024/01/20 07:55:44;;;;;;;15.90;7.83;;;;;;;-141.97;100.00;46638.91;5052044;28;20415;-86
2024/01/20 07:58:09;;;;;;;13.80;7.00;;;;;;;-141.97;100.00;46173.91;5053676;28;20178;-85
2024/01/20 08:00:35;;;;;;;5.57;3.23;;;;;;;-141.97;100.00;46504.38;5035300;28;20169;-86
2024/01/20 08:03:00;;;;;;;8.13;4.80;;;;;;;-141.97;100.00;46273.81;5053953;28;20209;-84
2024/01/20 08:05:26;;;;;;;6.93;3.63;;;;;;;-141.97;100.00;46170.06;5053783;28;20173;-84
2024/01/20 08:07:51;;;;;;;7.43;4.10;;;;;;;-141.97;100.00;46379.50;5052182;28;20172;-86
2024/01/20 08:10:17;;;;;;;6.47;3.77;;;;;;;-141.97;100.00;46648.50;5034724;28;20201;-86
2024/01/20 08:12:42;;;;;;;7.50;3.77;;;;;;;-141.97;100.00;46250.78;5051995;28;20200;-85
2024/01/20 08:15:08;;;;;;;11.37;5.50;;;;;;;-141.97;100.00;46577.41;5051107;28;20509;-86
2024/01/20 08:17:33;;;;;;;5.80;3.70;;;;;;;-141.97;100.00;46287.28;5033490;28;20175;-86
2024/01/20 08:19:59;;;;;;;7.37;3.53;;;;;;;-141.97;100.00;46204.66;5066650;28;20188;-86
2024/01/20 08:22:24;;;;;;;18.03;7.53;;;;;;;-141.97;100.00;46381.41;5040616;28;20180;-85
2024/01/20 08:24:49;;;;;;;29.10;15.07;;;;;;;-141.97;100.00;46308.41;5037200;28;20560;-87
2024/01/20 08:27:15;;;;;;;10.77;6.23;;;;;;;-141.97;100.00;46343.00;5066267;28;20272;-88
2024/01/20 08:29:40;;;;;;;4.93;3.43;;;;;;;-141.97;100.00;46348.75;5033399;28;20169;-88
2024/01/20 08:32:06;;;;;;;13.37;6.80;;;;;;;-141.97;100.00;46423.69;5063429;28;20256;-88
2024/01/20 08:34:31;;;;;;;14.37;7.97;;;;;;;-141.97;100.00;46583.16;5039770;28;20170;-90
2024/01/20 08:36:57;;;;;;;8.83;4.83;;;;;;;-141.97;100.00;46577.41;5034868;28;20169;-87
2024/01/20 08:39:22;;;;;;;8.70;4.63;;;;;;;-141.97;100.00;46223.88;5058207;28;20181;-88
2024/01/20 08:41:48;;;;;;;9.10;5.07;;;;;;;-141.97;100.00;46387.19;5044491;28;20232;-88
2024/01/20 08:44:14;;;;;;;6.93;4.43;;;;;;;-141.97;100.00;46118.19;5041222;28;20197;-87
2024/01/20 08:46:39;;;;;;;10.80;5.27;;;;;;;-141.97;100.00;46573.56;5068114;28;20172;-87
2024/01/20 08:49:07;;;;;;;13.30;6.67;;;;;;;-141.97;100.00;46734.97;5067875;28;20229;-88
2024/01/20 08:51:33;;;;;;;14.80;7.80;;;;;;;-141.97;100.00;46669.63;5052941;28;20607;-86
2024/01/20 08:53:58;;;;;;;7.87;4.37;;;;;;;-141.97;100.00;46544.75;5072532;28;20411;-86
2024/01/20 08:56:25;;;;;;;9.20;4.77;;;;;;;-141.97;100.00;46425.63;5058039;28;20173;-87
2024/01/20 08:58:50;;;;;;;9.70;5.80;;;;;;;-141.97;100.00;46281.50;5049387;28;20181;-87
2024/01/20 09:01:16;;;;;;;8.83;5.07;;;;;;;-141.97;100.00;46454.44;5037104;28;20411;-85
2024/01/20 09:03:41;;;;;;;12.00;7.60;;;;;;;-141.97;100.00;46704.22;5062039;28;20657;-87
2024/01/20 09:06:07;;;;;;;9.07;5.00;;;;;;;-141.97;100.00;46262.28;5048529;28;20202;-87
2024/01/20 09:08:33;;;;;;;14.57;6.77;;;;;;;-141.97;100.00;46612.00;5054893;28;20581;-85
2024/01/20 09:10:58;;;;;;;30.30;9.43;;;;;;;-141.97;100.00;46727.28;5034976;28;20230;-86
2024/01/20 09:13:23;;;;;;;23.93;9.30;;;;;;;-141.97;100.00;46454.44;5052450;28;20170;-86
2024/01/20 09:15:51;;;;;;;15.77;7.30;;;;;;;-141.97;100.00;46425.63;5068791;28;20193;-86
2024/01/20 09:18:17;;;;;;;8.63;5.23;;;;;;;-141.97;100.00;46677.31;5050719;28;20429;-89
2024/01/20 09:20:43;;;;;;;13.57;8.50;;;;;;;-141.97;100.00;46262.28;5053534;28;20503;-86
2024/01/20 09:23:08;;;;;;;12.07;6.20;;;;;;;-141.97;100.00;46750.34;5039853;28;20272;-85
2024/01/20 09:25:34;;;;;;;19.63;10.17;;;;;;;-141.97;100.00;46727.28;5050938;28;20173;-85
2024/01/20 09:28:00;;;;;;;7.80;5.20;;;;;;;-141.97;100.00;46442.91;5078365;28;20190;-86
2024/01/20 09:30:25;;;;;;;12.10;6.23;;;;;;;-141.97;100.00;46383.34;5060951;28;20251;-85
2024/01/20 09:32:51;;;;;;;7.17;3.97;;;;;;;-141.97;100.00;46690.78;5068892;28;20410;-85
2024/01/20 09:35:16;;;;;;;10.93;5.77;;;;;;;-141.97;100.00;46702.31;5056338;28;20631;-85
2024/01/20 09:37:41;;;;;;;25.33;12.80;;;;;;;-141.97;100.00;46460.19;5070845;28;20236;-85
2024/01/20 09:40:08;;;;;;;21.80;11.03;;;;;;;-141.97;100.00;46677.31;5059752;28;20165;-85
2024/01/20 09:42:34;;;;;;;15.37;8.37;;;;;;;-141.97;100.00;46448.66;5052911;28;20180;-86
2024/01/20 09:45:00;;;;;;;7.67;4.83;;;;;;;-141.97;100.00;46248.84;5068854;28;20450;-85
2024/01/20 09:47:26;;;;;;;7.30;4.90;;;;;;;-141.97;100.00;46692.69;5037247;28;20224;-86
2024/01/20 09:49:52;;;;;;;16.33;9.80;;;;;;;-141.97;100.00;46335.31;5040990;28;20214;-86
2024/01/20 09:52:25;;;;;;;17.80;10.30;;;;;;;-141.97;100.00;46771.50;5031444;28;20267;-86
2024/01/20 09:55:06;;;;;;;10.67;5.97;;;;;;;-141.97;100.00;46369.88;5051631;28;20165;-84
2024/01/20 09:57:33;;;;;;;14.63;7.27;;;;;;;-141.97;100.00;46644.66;5035176;28;20419;-85
2024/01/20 10:00:02;;;;;;;16.57;7.63;;;;;;;-141.97;100.00;46293.03;5049685;28;20431;-86
2024/01/20 10:02:29;;;;;;;20.37;9.33;;;;;;;-141.97;100.00;46446.75;5033313;28;20413;-87
2024/01/20 10:04:58;;;;;;;47.60;18.97;;;;;;;-141.97;100.00;46431.38;5030503;28;20830;-84
2024/01/20 10:07:31;;;;;;;20.80;9.70;;;;;;;-141.97;100.00;46481.34;5042811;28;20623;-86
2024/01/20 10:10:00;;;;;;;33.17;14.40;;;;;;;-141.97;100.00;46414.09;5041862;28;20420;-85
2024/01/20 10:12:26;;;;;;;25.50;15.03;;;;;;;-141.97;100.00;46681.16;5053712;28;20407;-87
2024/01/20 10:14:52;;;;;;;27.43;15.10;;;;;;;-141.97;100.00;46310.31;5042269;28;20470;-86
2024/01/20 10:17:18;;;;;;;19.07;8.63;;;;;;;-141.97;100.00;46308.41;5055650;28;20194;-83
2024/01/20 10:19:44;;;;;;;57.60;26.17;;;;;;;-141.97;100.00;46433.28;5048788;28;20416;-86
2024/01/20 10:22:10;;;;;;;11.57;6.13;;;;;;;-141.97;100.00;46389.09;5034688;28;20423;-86
2024/01/20 10:25:06;;;;;;;19.40;9.70;;;;;;;-141.97;100.00;46450.59;5047995;28;20284;-86
2024/01/20 10:27:31;;;;;;;22.57;10.07;;;;;;;-141.97;100.00;46446.75;4999824;28;20435;-86
2024/01/20 10:29:56;;;;;;;14.43;7.30;;;;;;;-141.97;100.00;46269.97;5002238;28;20411;-86
2024/01/20 10:32:22;;;;;;;13.93;6.40;;;;;;;-141.97;100.00;46763.81;5005910;28;20734;-86
2024/01/20 10:34:47;;;;;;;12.20;5.87;;;;;;;-141.97;100.00;46458.28;4997732;28;20172;-87
2024/01/20 10:37:14;;;;;;;15.30;7.40;;;;;;;-141.97;100.00;46450.59;5010241;28;20214;-87
2024/01/20 10:39:44;;;;;;;16.93;8.27;;;;;;;-141.97;100.00;46271.91;4983898;28;20657;-87
2024/01/20 10:42:13;;;;;;;18.13;9.40;;;;;;;-141.97;100.00;46369.88;4999291;28;20407;-87
2024/01/20 10:44:50;;;;;;;11.73;5.17;;;;;;;-141.97;100.00;46731.13;4990903;28;20461;-86
2024/01/20 10:47:22;;;;;;;6.00;3.13;;;;;;;-141.97;100.00;46362.22;5011397;28;21019;-86
2024/01/20 10:49:49;;;;;;;39.77;17.30;;;;;;;-141.97;100.00;46727.28;5001298;28;20938;-86
2024/01/20 10:52:14;;;;;;;19.30;9.73;;;;;;;-141.97;100.00;46471.72;5004716;28;20421;-87
2024/01/20 10:54:43;;;;;;;11.87;6.20;;;;;;;-141.97;100.00;46736.91;4995329;28;20425;-87
2024/01/20 10:57:10;;;;;;;20.50;9.90;;;;;;;-141.97;100.00;46220.03;5011551;28;20190;-85